createdAt,value
2023-11-25T00:00:51.283Z,96383.41
2023-11-25T00:01:54.316Z,96372.56
2023-11-25T00:02:58.061Z,96377.75
2023-11-25T00:04:01.178Z,96374.94
2023-11-25T00:05:06.582Z,96383.47
2023-11-25T00:06:09.766Z,96377.03
2023-11-25T00:07:13.009Z,96374.75
2023-11-25T00:08:16.669Z,96393.06
2023-11-25T00:09:19.671Z,96390.28
2023-11-25T00:10:24.113Z,96402.63
2023-11-25T00:11:29.939Z,96413.44
2023-11-25T00:12:33.446Z,96417.34
2023-11-25T00:13:36.501Z,96410.87
2023-11-25T00:14:40.584Z,96414.00
2023-11-25T00:15:43.812Z,96403.41
2023-11-25T00:16:46.875Z,96391.34
2023-11-25T00:17:49.718Z,96399.69
2023-11-25T00:18:52.960Z,96398.16
2023-11-25T00:19:57.632Z,96399.69
2023-11-25T00:21:00.703Z,96410.25
2023-11-25T00:22:03.697Z,96416.97
2023-11-25T00:23:06.636Z,96416.69
2023-11-25T00:24:09.878Z,96424.72
2023-11-25T00:25:14.046Z,96430.97
2023-11-25T00:26:16.912Z,96434.59
2023-11-25T00:27:20.207Z,96431.03
2023-11-25T00:28:22.975Z,96429.97
2023-11-25T00:29:26.063Z,96436.91
2023-11-25T00:30:30.671Z,96440.00
2023-11-25T00:31:34.571Z,96440.75
2023-11-25T00:32:41.376Z,96434.03
2023-11-25T00:33:44.376Z,96439.47
2023-11-25T00:34:47.737Z,96442.09
2023-11-25T00:35:51.845Z,96442.88
2023-11-25T00:36:54.709Z,96441.84
2023-11-25T00:37:58.083Z,96439.28
2023-11-25T00:39:01.149Z,96444.13
2023-11-25T00:40:25.366Z,96434.66
2023-11-25T00:41:28.524Z,96428.72
2023-11-25T00:42:31.282Z,96432.28
2023-11-25T00:43:34.443Z,96426.09
2023-11-25T00:44:39.345Z,96431.28
2023-11-25T00:45:43.761Z,96432.28
2023-11-25T00:46:46.696Z,96432.28
2023-11-25T00:47:49.544Z,96429.72
2023-11-25T00:48:53.689Z,96427.13
2023-11-25T00:49:57.003Z,96419.09
2023-11-25T00:50:59.988Z,96421.69
2023-11-25T00:52:03.182Z,96424.50
2023-11-25T00:53:06.205Z,96416.78
2023-11-25T00:54:10.126Z,96419.09
2023-11-25T00:55:13.139Z,96404.63
2023-11-25T00:56:17.201Z,96412.28
2023-11-25T00:57:20.213Z,96407.97
2023-11-25T00:58:22.978Z,96405.19
2023-11-25T00:59:26.002Z,96406.91
2023-11-25T01:00:32.117Z,96403.56
2023-11-25T01:01:36.702Z,96404.56
2023-11-25T01:02:40.067Z,96403.53
2023-11-25T01:03:43.299Z,96401.75
2023-11-25T01:04:46.332Z,96398.72
2023-11-25T01:05:50.342Z,96388.81
2023-11-25T01:06:53.516Z,96393.69
2023-11-25T01:07:56.738Z,96385.69
2023-11-25T01:08:59.732Z,96392.09
2023-11-25T01:10:03.030Z,96393.69
2023-11-25T01:11:06.711Z,96389.88
2023-11-25T01:12:09.600Z,96387.75
2023-11-25T01:13:12.409Z,96395.50
2023-11-25T01:14:15.414Z,96384.62
2023-11-25T01:15:18.262Z,96388.03
2023-11-25T01:16:21.220Z,96389.56
2023-11-25T01:17:25.824Z,96389.56
2023-11-25T01:18:28.834Z,96390.88
2023-11-25T01:19:31.584Z,96393.00
2023-11-25T01:20:34.667Z,96390.69
2023-11-25T01:21:37.838Z,96393.81
2023-11-25T01:22:41.279Z,96390.25
2023-11-25T01:23:44.128Z,96394.34
2023-11-25T01:24:49.175Z,96399.94
2023-11-25T01:25:52.630Z,96405.09
2023-11-25T01:26:55.715Z,96403.16
2023-11-25T01:27:59.643Z,96401.59
2023-11-25T01:29:04.307Z,96408.34
2023-11-25T01:30:08.134Z,96408.16
2023-11-25T01:31:11.571Z,96405.81
2023-11-25T01:32:14.911Z,96404.31
2023-11-25T01:33:17.950Z,96404.09
2023-11-25T01:34:21.593Z,96402.06
2023-11-25T01:35:24.599Z,96398.69
2023-11-25T01:36:30.296Z,96389.41
2023-11-25T01:37:33.057Z,96387.34
2023-11-25T01:38:36.307Z,96388.44
2023-11-25T01:39:39.240Z,96383.03
2023-11-25T01:40:43.144Z,96377.12
2023-11-25T01:41:46.094Z,96370.94
2023-11-25T01:42:48.807Z,96362.16
2023-11-25T01:43:51.840Z,96369.47
2023-11-25T01:44:54.606Z,96367.44
2023-11-25T01:45:59.294Z,96369.22
2023-11-25T01:47:02.682Z,96368.13
2023-11-25T01:48:06.379Z,96376.41
2023-11-25T01:49:13.980Z,96367.19
2023-11-25T01:50:17.355Z,96357.41
2023-11-25T01:51:20.329Z,96354.59
2023-11-25T01:52:24.451Z,96349.97
2023-11-25T01:53:29.776Z,96347.41
2023-11-25T01:54:32.911Z,96348.16
2023-11-25T01:55:36.105Z,96350.31
2023-11-25T01:56:39.109Z,96348.91
2023-11-25T01:57:42.814Z,96360.06
2023-11-25T01:58:46.737Z,96366.75
2023-11-25T01:59:50.021Z,96363.59
2023-11-25T02:00:52.881Z,96373.19
2023-11-25T02:01:56.893Z,96366.97
2023-11-25T02:03:00.196Z,96362.66
2023-11-25T02:04:03.204Z,96355.72
2023-11-25T02:05:06.999Z,96352.16
2023-11-25T02:06:09.993Z,96345.75
2023-11-25T02:07:13.182Z,96336.94
2023-11-25T02:08:16.094Z,96340.06
2023-11-25T02:09:19.219Z,96336.72
2023-11-25T02:10:22.279Z,96333.16
2023-11-25T02:11:26.701Z,96338.59
2023-11-25T02:12:29.696Z,96332.16
2023-11-25T02:13:32.807Z,96346.09
2023-11-25T02:14:35.842Z,96332.47
2023-11-25T02:15:41.166Z,96329.91
2023-11-25T02:16:43.930Z,96327.13
2023-11-25T02:17:47.144Z,96327.84
2023-11-25T02:18:50.163Z,96318.34
2023-11-25T02:19:55.063Z,96322.22
2023-11-25T02:20:58.071Z,96319.44
2023-11-25T02:22:01.563Z,96323.06
2023-11-25T02:23:06.160Z,96317.41
2023-11-25T02:24:09.461Z,96320.19
2023-11-25T02:25:13.063Z,96322.22
2023-11-25T02:26:16.124Z,96322.78
2023-11-25T02:27:18.893Z,96327.97
2023-11-25T02:28:22.444Z,96333.41
2023-11-25T02:29:25.622Z,96339.09
2023-11-25T02:30:28.692Z,96348.03
2023-11-25T02:31:31.455Z,96360.69
2023-11-25T02:32:35.123Z,96358.16
2023-11-25T02:33:38.225Z,96358.44
2023-11-25T02:34:41.294Z,96354.03
2023-11-25T02:35:45.279Z,96350.37
2023-11-25T02:36:49.947Z,96347.84
2023-11-25T02:37:53.018Z,96348.63
2023-11-25T02:38:57.917Z,96355.84
2023-11-25T02:40:02.304Z,96354.81
2023-11-25T02:41:05.619Z,96361.50
2023-11-25T02:42:08.513Z,96361.00
2023-11-25T02:43:12.603Z,96360.25
2023-11-25T02:44:17.376Z,96368.00
2023-11-25T02:45:24.025Z,96361.31
2023-11-25T02:46:27.360Z,96361.88
2023-11-25T02:47:30.676Z,96360.59
2023-11-25T02:48:33.742Z,96368.03
2023-11-25T02:49:36.966Z,96365.75
2023-11-25T02:50:39.786Z,96367.56
2023-11-25T02:51:53.320Z,96362.88
2023-11-25T02:52:56.389Z,96370.12
2023-11-25T02:53:59.865Z,96362.41
2023-11-25T02:55:02.866Z,96359.53
2023-11-25T02:56:07.575Z,96361.34
2023-11-25T02:57:10.382Z,96354.16
2023-11-25T02:58:14.073Z,96360.56
2023-11-25T02:59:20.157Z,96357.97
2023-11-25T03:00:26.299Z,96356.72
2023-11-25T03:01:31.614Z,96361.06
2023-11-25T03:02:35.133Z,96358.00
2023-11-25T03:03:43.327Z,96353.66
2023-11-25T03:04:49.443Z,96360.63
2023-11-25T03:05:54.792Z,96358.28
2023-11-25T03:06:59.564Z,96363.41
2023-11-25T03:08:02.592Z,96350.25
2023-11-25T03:09:08.142Z,96358.94
2023-11-25T03:10:11.514Z,96347.25
2023-11-25T03:11:20.123Z,96366.34
2023-11-25T03:12:23.966Z,96366.13
2023-11-25T03:13:27.091Z,96360.69
2023-11-25T03:14:30.176Z,96358.41
2023-11-25T03:15:33.268Z,96363.03
2023-11-25T03:16:37.383Z,96353.47
2023-11-25T03:17:40.955Z,96358.34
2023-11-25T03:18:44.245Z,96354.75
2023-11-25T03:19:47.330Z,96347.00
2023-11-25T03:20:50.180Z,96353.19
2023-11-25T03:21:54.359Z,96348.81
2023-11-25T03:22:57.256Z,96345.69
2023-11-25T03:24:00.813Z,96350.13
2023-11-25T03:25:06.262Z,96353.44
2023-11-25T03:26:13.525Z,96351.13
2023-11-25T03:27:16.966Z,96352.63
2023-11-25T03:28:21.381Z,96354.41
2023-11-25T03:29:24.066Z,96356.00
2023-11-25T03:30:27.911Z,96355.72
2023-11-25T03:31:30.941Z,96352.41
2023-11-25T03:32:33.880Z,96357.56
2023-11-25T03:33:36.771Z,96356.78
2023-11-25T03:34:39.834Z,96355.72
2023-11-25T03:35:43.094Z,96359.34
2023-11-25T03:36:46.081Z,96357.78
2023-11-25T03:37:49.343Z,96353.72
2023-11-25T03:38:52.191Z,96351.44
2023-11-25T03:39:55.332Z,96358.13
2023-11-25T03:40:58.839Z,96359.13
2023-11-25T03:42:03.045Z,96348.81
2023-11-25T03:43:06.244Z,96350.13
2023-11-25T03:44:09.186Z,96350.06
2023-11-25T03:45:16.039Z,96355.75
2023-11-25T03:46:19.264Z,96348.22
2023-11-25T03:47:22.110Z,96348.47
2023-11-25T03:48:25.165Z,96353.16
2023-11-25T03:49:28.407Z,96354.41
2023-11-25T03:50:31.130Z,96352.59
2023-11-25T03:51:34.118Z,96359.81
2023-11-25T03:52:37.360Z,96362.47
2023-11-25T03:53:40.486Z,96365.84
2023-11-25T03:54:44.466Z,96364.03
2023-11-25T03:55:47.609Z,96369.97
2023-11-25T03:56:50.864Z,96368.69
2023-11-25T03:57:53.692Z,96369.78
2023-11-25T03:58:56.543Z,96374.94
2023-11-25T03:59:59.178Z,96377.50
2023-11-25T04:01:02.738Z,96372.91
2023-11-25T04:02:05.537Z,96381.09
2023-11-25T04:03:08.621Z,96383.19
2023-11-25T04:04:12.496Z,96378.31
2023-11-25T04:05:20.480Z,96379.34
2023-11-25T04:06:23.651Z,96368.03
2023-11-25T04:07:26.838Z,96376.28
2023-11-25T04:08:30.009Z,96366.28
2023-11-25T04:09:33.377Z,96375.53
2023-11-25T04:10:38.433Z,96375.56
2023-11-25T04:11:44.557Z,96369.09
2023-11-25T04:12:49.212Z,96367.59
2023-11-25T04:13:52.645Z,96357.31
2023-11-25T04:14:55.715Z,96363.50
2023-11-25T04:16:01.392Z,96371.25
2023-11-25T04:17:04.828Z,96370.22
2023-11-25T04:18:07.732Z,96369.72
2023-11-25T04:19:11.746Z,96371.03
2023-11-25T04:20:15.393Z,96366.66
2023-11-25T04:21:23.041Z,96368.22
2023-11-25T04:22:26.124Z,96365.91
2023-11-25T04:23:31.770Z,96363.63
2023-11-25T04:24:35.834Z,96364.63
2023-11-25T04:25:39.241Z,96365.41
2023-11-25T04:26:42.379Z,96363.63
2023-11-25T04:27:50.588Z,96368.25
2023-11-25T04:28:54.185Z,96372.31
2023-11-25T04:29:57.274Z,96365.16
2023-11-25T04:31:00.726Z,96364.59
2023-11-25T04:32:04.024Z,96364.59
2023-11-25T04:33:13.041Z,96365.91
2023-11-25T04:34:15.816Z,96367.19
2023-11-25T04:35:18.599Z,96365.16
2023-11-25T04:36:21.504Z,96363.09
2023-11-25T04:37:24.548Z,96365.94
2023-11-25T04:38:27.640Z,96367.25
2023-11-25T04:39:30.392Z,96351.03
2023-11-25T04:40:33.484Z,96362.34
2023-11-25T04:41:41.113Z,96365.69
2023-11-25T04:42:44.700Z,96368.78
2023-11-25T04:43:47.777Z,96364.91
2023-11-25T04:44:51.255Z,96371.06
2023-11-25T04:45:54.043Z,96373.97
2023-11-25T04:46:57.108Z,96372.66
2023-11-25T04:48:00.384Z,96374.19
2023-11-25T04:49:05.419Z,96378.84
2023-11-25T04:50:09.666Z,96378.03
2023-11-25T04:51:12.884Z,96371.06
2023-11-25T04:52:16.134Z,96374.69
2023-11-25T04:53:18.899Z,96375.22
2023-11-25T04:54:21.729Z,96375.22
2023-11-25T04:55:29.159Z,96373.44
2023-11-25T04:56:32.467Z,96376.31
2023-11-25T04:57:36.125Z,96378.88
2023-11-25T04:58:41.669Z,96382.44
2023-11-25T04:59:44.408Z,96380.66
2023-11-25T05:00:50.066Z,96379.34
2023-11-25T05:01:53.157Z,96383.22
2023-11-25T05:02:56.350Z,96381.44
2023-11-25T05:03:59.902Z,96375.53
2023-11-25T05:05:03.139Z,96381.69
2023-11-25T05:06:10.863Z,96374.25
2023-11-25T05:07:13.740Z,96379.13
2023-11-25T05:08:16.428Z,96380.94
2023-11-25T05:09:19.882Z,96383.25
2023-11-25T05:10:22.788Z,96379.38
2023-11-25T05:11:28.009Z,96392.47
2023-11-25T05:12:31.048Z,96391.66
2023-11-25T05:13:34.268Z,96391.41
2023-11-25T05:14:37.349Z,96397.31
2023-11-25T05:15:40.714Z,96390.41
2023-11-25T05:16:43.613Z,96394.53
2023-11-25T05:17:46.653Z,96390.94
2023-11-25T05:18:49.662Z,96396.59
2023-11-25T05:19:52.734Z,96391.94
2023-11-25T05:20:55.684Z,96398.34
2023-11-25T05:21:58.666Z,96390.34
2023-11-25T05:23:02.292Z,96395.81
2023-11-25T05:24:06.554Z,96387.06
2023-11-25T05:25:12.329Z,96384.00
2023-11-25T05:26:15.586Z,96390.22
2023-11-25T05:27:18.650Z,96379.16
2023-11-25T05:28:23.580Z,96381.75
2023-11-25T05:29:26.695Z,96383.78
2023-11-25T05:30:29.751Z,96385.31
2023-11-25T05:31:34.904Z,96384.78
2023-11-25T05:32:38.104Z,96385.31
2023-11-25T05:33:41.284Z,96387.91
2023-11-25T05:34:44.280Z,96383.81
2023-11-25T05:35:47.429Z,96377.12
2023-11-25T05:36:50.522Z,96385.63
2023-11-25T05:37:54.497Z,96378.94
2023-11-25T05:38:57.957Z,96376.09
2023-11-25T05:40:00.963Z,96379.72
2023-11-25T05:41:04.530Z,96386.94
2023-11-25T05:42:08.401Z,96374.59
2023-11-25T05:43:11.557Z,96382.06
2023-11-25T05:44:14.581Z,96375.63
2023-11-25T05:45:19.747Z,96374.34
2023-11-25T05:46:24.774Z,96372.78
2023-11-25T05:47:29.879Z,96367.69
2023-11-25T05:48:33.625Z,96364.84
2023-11-25T05:49:36.607Z,96367.69
2023-11-25T05:50:40.358Z,96364.91
2023-11-25T05:51:43.743Z,96363.38
2023-11-25T05:52:47.291Z,96371.63
2023-11-25T05:53:50.381Z,96376.50
2023-11-25T05:54:53.685Z,96374.97
2023-11-25T05:55:57.314Z,96384.97
2023-11-25T05:57:00.062Z,96380.63
2023-11-25T05:58:02.713Z,96385.00
2023-11-25T05:59:05.553Z,96388.13
2023-11-25T06:00:13.499Z,96388.66
2023-11-25T06:01:16.390Z,96386.84
2023-11-25T06:02:19.463Z,96388.66
2023-11-25T06:03:24.654Z,96388.66
2023-11-25T06:04:27.999Z,96386.84
2023-11-25T06:05:31.246Z,96387.91
2023-11-25T06:06:34.076Z,96388.66
2023-11-25T06:07:37.097Z,96389.19
2023-11-25T06:08:40.091Z,96388.41
2023-11-25T06:09:43.178Z,96381.75
2023-11-25T06:10:48.455Z,96382.75
2023-11-25T06:11:52.612Z,96389.47
2023-11-25T06:12:55.394Z,96387.41
2023-11-25T06:13:58.262Z,96388.47
2023-11-25T06:15:01.817Z,96395.91
2023-11-25T06:16:05.183Z,96401.84
2023-11-25T06:17:08.888Z,96399.03
2023-11-25T06:18:14.966Z,96399.50
2023-11-25T06:19:19.384Z,96408.78
2023-11-25T06:20:26.386Z,96397.97
2023-11-25T06:21:29.218Z,96402.59
2023-11-25T06:22:32.318Z,96402.84
2023-11-25T06:23:35.244Z,96406.19
2023-11-25T06:24:38.274Z,96405.94
2023-11-25T06:25:44.162Z,96406.69
2023-11-25T06:26:49.352Z,96406.44
2023-11-25T06:27:52.374Z,96413.38
2023-11-25T06:28:56.700Z,96412.88
2023-11-25T06:29:59.896Z,96414.94
2023-11-25T06:31:05.566Z,96419.78
2023-11-25T06:32:08.498Z,96411.03
2023-11-25T06:33:11.575Z,96407.69
2023-11-25T06:34:14.771Z,96400.75
2023-11-25T06:35:18.200Z,96408.97
2023-11-25T06:36:21.189Z,96409.75
2023-11-25T06:37:25.187Z,96412.28
2023-11-25T06:38:28.238Z,96417.41
2023-11-25T06:39:33.294Z,96413.03
2023-11-25T06:40:36.637Z,96410.47
2023-11-25T06:41:44.507Z,96406.88
2023-11-25T06:42:47.509Z,96409.69
2023-11-25T06:43:51.180Z,96407.12
2023-11-25T06:44:54.211Z,96406.06
2023-11-25T06:45:57.092Z,96405.53
2023-11-25T06:47:00.072Z,96413.53
2023-11-25T06:48:04.102Z,96410.69
2023-11-25T06:49:08.435Z,96412.50
2023-11-25T06:50:13.009Z,96415.81
2023-11-25T06:51:16.194Z,96414.47
2023-11-25T06:52:19.057Z,96416.78
2023-11-25T06:53:22.109Z,96406.97
2023-11-25T06:54:25.359Z,96419.53
2023-11-25T06:55:29.292Z,96417.19
2023-11-25T06:56:34.548Z,96410.97
2023-11-25T06:57:37.490Z,96413.81
2023-11-25T06:58:41.426Z,96410.19
2023-11-25T06:59:47.003Z,96420.50
2023-11-25T07:00:50.605Z,96410.97
2023-11-25T07:01:56.113Z,96418.44
2023-11-25T07:02:58.907Z,96414.06
2023-11-25T07:04:08.862Z,96416.31
2023-11-25T07:05:11.916Z,96409.09
2023-11-25T07:06:18.135Z,96423.50
2023-11-25T07:07:22.365Z,96427.91
2023-11-25T07:08:25.718Z,96428.88
2023-11-25T07:09:28.420Z,96432.50
2023-11-25T07:10:36.187Z,96444.06
2023-11-25T07:11:39.587Z,96431.69
2023-11-25T07:12:43.171Z,96428.00
2023-11-25T07:13:46.104Z,96439.56
2023-11-25T07:14:49.261Z,96435.16
2023-11-25T07:15:52.063Z,96431.31
2023-11-25T07:16:55.255Z,96426.69
2023-11-25T07:17:59.465Z,96436.22
2023-11-25T07:19:02.552Z,96434.63
2023-11-25T07:20:07.417Z,96436.34
2023-11-25T07:21:15.597Z,96437.62
2023-11-25T07:22:18.468Z,96437.62
2023-11-25T07:23:21.592Z,96434.19
2023-11-25T07:24:28.704Z,96434.37
2023-11-25T07:25:33.877Z,96446.72
2023-11-25T07:26:42.742Z,96441.28
2023-11-25T07:27:46.766Z,96436.38
2023-11-25T07:28:49.790Z,96440.19
2023-11-25T07:29:52.800Z,96433.97
2023-11-25T07:30:56.054Z,96437.81
2023-11-25T07:32:01.661Z,96447.03
2023-11-25T07:33:05.393Z,96429.69
2023-11-25T07:34:09.664Z,96430.59
2023-11-25T07:35:13.159Z,96440.06
2023-11-25T07:36:17.193Z,96443.09
2023-11-25T07:37:20.406Z,96441.47
2023-11-25T07:38:23.233Z,96440.06
2023-11-25T07:39:30.871Z,96440.75
2023-11-25T07:40:35.669Z,96448.84
2023-11-25T07:41:38.464Z,96444.09
2023-11-25T07:42:47.368Z,96456.34
2023-11-25T07:43:52.616Z,96451.59
2023-11-25T07:44:55.421Z,96451.13
2023-11-25T07:45:58.598Z,96450.72
2023-11-25T07:47:03.312Z,96447.97
2023-11-25T07:48:06.220Z,96446.78
2023-11-25T07:49:08.978Z,96451.81
2023-11-25T07:50:12.377Z,96449.06
2023-11-25T07:51:14.993Z,96451.75
2023-11-25T07:52:18.093Z,96454.84
2023-11-25T07:53:24.523Z,96452.69
2023-11-25T07:54:27.612Z,96457.22
2023-11-25T07:55:30.655Z,96458.75
2023-11-25T07:56:33.789Z,96461.72
2023-11-25T07:57:36.629Z,96453.78
2023-11-25T07:58:40.218Z,96454.16
2023-11-25T07:59:43.599Z,96466.16
2023-11-25T08:00:46.230Z,96463.16
2023-11-25T08:01:49.009Z,96472.09
2023-11-25T08:02:57.166Z,96468.88
2023-11-25T08:04:01.478Z,96465.88
2023-11-25T08:05:04.903Z,96470.31
2023-11-25T08:06:07.831Z,96467.75
2023-11-25T08:07:10.837Z,96467.62
2023-11-25T08:08:13.730Z,96463.53
2023-11-25T08:09:16.707Z,96460.91
2023-11-25T08:10:21.583Z,96466.22
2023-11-25T08:11:25.097Z,96468.44
2023-11-25T08:12:28.248Z,96472.16
2023-11-25T08:13:31.865Z,96473.13
2023-11-25T08:14:34.957Z,96476.03
2023-11-25T08:15:37.917Z,96470.44
2023-11-25T08:16:41.153Z,96467.62
2023-11-25T08:17:44.854Z,96454.34
2023-11-25T08:18:48.216Z,96461.69
2023-11-25T08:19:51.335Z,96464.03
2023-11-25T08:20:54.377Z,96458.72
2023-11-25T08:21:57.554Z,96464.50
2023-11-25T08:23:01.275Z,96458.72
2023-11-25T08:24:04.656Z,96461.16
2023-11-25T08:25:11.533Z,96469.88
2023-11-25T08:26:23.918Z,96464.69
2023-11-25T08:27:26.854Z,96460.28
2023-11-25T08:28:29.833Z,96469.28
2023-11-25T08:29:32.603Z,96468.47
2023-11-25T08:30:37.760Z,96461.12
2023-11-25T08:31:41.123Z,96462.78
2023-11-25T08:32:44.959Z,96464.97
2023-11-25T08:33:48.290Z,96470.28
2023-11-25T08:34:51.805Z,96468.19
2023-11-25T08:35:54.926Z,96474.91
2023-11-25T08:36:57.705Z,96474.13
2023-11-25T08:38:00.498Z,96473.09
2023-11-25T08:39:03.329Z,96484.25
2023-11-25T08:40:08.902Z,96481.69
2023-11-25T08:41:12.261Z,96479.37
2023-11-25T08:42:15.904Z,96478.63
2023-11-25T08:43:19.018Z,96481.19
2023-11-25T08:44:21.855Z,96485.63
2023-11-25T08:45:25.663Z,96480.53
2023-11-25T08:46:28.631Z,96493.91
2023-11-25T08:47:33.597Z,96491.22
2023-11-25T08:48:36.585Z,96485.06
2023-11-25T08:49:39.523Z,96488.53
2023-11-25T08:50:42.424Z,96487.87
2023-11-25T08:51:48.941Z,96494.97
2023-11-25T08:52:52.291Z,96488.81
2023-11-25T08:53:55.446Z,96483.75
2023-11-25T08:54:58.554Z,96480.69
2023-11-25T08:56:03.928Z,96485.66
2023-11-25T08:57:10.333Z,96479.84
2023-11-25T08:58:14.090Z,96475.50
2023-11-25T08:59:22.077Z,96479.69
2023-11-25T09:00:25.516Z,96476.38
2023-11-25T09:01:33.409Z,96483.88
2023-11-25T09:02:36.972Z,96479.13
2023-11-25T09:03:40.896Z,96481.47
2023-11-25T09:04:44.290Z,96480.47
2023-11-25T09:05:48.311Z,96477.97
2023-11-25T09:06:51.674Z,96480.91
2023-11-25T09:07:57.246Z,96486.81
2023-11-25T09:09:00.495Z,96484.28
2023-11-25T09:10:06.842Z,96488.06
2023-11-25T09:11:10.313Z,96484.25
2023-11-25T09:12:16.037Z,96484.63
2023-11-25T09:13:19.231Z,96489.38
2023-11-25T09:14:22.351Z,96486.84
2023-11-25T09:15:25.176Z,96496.81
2023-11-25T09:16:29.451Z,96494.22
2023-11-25T09:17:34.108Z,96488.41
2023-11-25T09:18:38.397Z,96489.78
2023-11-25T09:19:41.521Z,96495.28
2023-11-25T09:20:44.298Z,96491.06
2023-11-25T09:21:47.104Z,96491.78
2023-11-25T09:22:50.951Z,96493.50
2023-11-25T09:23:56.548Z,96492.81
2023-11-25T09:24:59.737Z,96487.28
2023-11-25T09:26:03.822Z,96492.97
2023-11-25T09:27:06.983Z,96499.44
2023-11-25T09:28:14.334Z,96498.81
2023-11-25T09:29:17.392Z,96491.78
2023-11-25T09:30:20.285Z,96492.06
2023-11-25T09:31:24.176Z,96496.97
2023-11-25T09:32:29.099Z,96486.09
2023-11-25T09:33:32.682Z,96490.25
2023-11-25T09:34:35.799Z,96493.88
2023-11-25T09:35:38.882Z,96494.31
2023-11-25T09:36:41.924Z,96492.53
2023-11-25T09:37:46.515Z,96482.13
2023-11-25T09:38:49.686Z,96475.56
2023-11-25T09:39:52.719Z,96490.50
2023-11-25T09:40:55.983Z,96465.50
2023-11-25T09:42:00.279Z,96491.44
2023-11-25T09:43:03.620Z,96486.47
2023-11-25T09:44:09.650Z,96493.09
2023-11-25T09:45:14.009Z,96485.63
2023-11-25T09:46:17.915Z,96479.28
2023-11-25T09:47:20.732Z,96471.13
2023-11-25T09:48:24.428Z,96469.81
2023-11-25T09:49:27.515Z,96476.16
2023-11-25T09:50:30.865Z,96465.59
2023-11-25T09:51:37.773Z,96469.38
2023-11-25T09:52:52.371Z,96464.75
2023-11-25T09:53:58.687Z,96457.41
2023-11-25T09:55:02.766Z,96461.47
2023-11-25T09:56:07.460Z,96448.78
2023-11-25T09:57:11.413Z,96445.91
2023-11-25T09:58:19.285Z,96452.38
2023-11-25T09:59:23.848Z,96452.97
2023-11-25T10:00:28.375Z,96450.28
2023-11-25T10:01:32.217Z,96453.03
2023-11-25T10:02:37.274Z,96446.16
2023-11-25T10:03:45.276Z,96443.50
2023-11-25T10:04:49.249Z,96448.69
2023-11-25T10:05:52.293Z,96440.38
2023-11-25T10:06:55.659Z,96446.56
2023-11-25T10:07:58.432Z,96439.03
2023-11-25T10:09:03.054Z,96466.59
2023-11-25T10:10:06.735Z,96444.84
2023-11-25T10:11:10.177Z,96444.69
2023-11-25T10:12:13.226Z,96450.88
2023-11-25T10:13:16.562Z,96450.56
2023-11-25T10:14:19.250Z,96456.81
2023-11-25T10:15:25.615Z,96448.28
2023-11-25T10:16:32.033Z,96455.03
2023-11-25T10:17:35.074Z,96454.84
2023-11-25T10:18:39.140Z,96454.25
2023-11-25T10:19:42.156Z,96456.19
2023-11-25T10:20:48.669Z,96457.44
2023-11-25T10:21:53.179Z,96455.41
2023-11-25T10:22:59.503Z,96460.50
2023-11-25T10:24:09.805Z,96453.00
2023-11-25T10:25:12.919Z,96451.88
2023-11-25T10:26:19.496Z,96460.78
2023-11-25T10:27:23.345Z,96453.59
2023-11-25T10:28:27.717Z,96457.13
2023-11-25T10:29:33.396Z,96455.31
2023-11-25T10:30:36.343Z,96463.06
2023-11-25T10:31:43.240Z,96457.50
2023-11-25T10:32:46.371Z,96459.34
2023-11-25T10:33:49.338Z,96451.75
2023-11-25T10:34:57.142Z,96456.53
2023-11-25T10:36:00.661Z,96462.88
2023-11-25T10:37:06.122Z,96459.22
2023-11-25T10:38:08.949Z,96464.97
2023-11-25T10:39:12.566Z,96462.22
2023-11-25T10:40:18.442Z,96459.91
2023-11-25T10:41:21.944Z,96462.69
2023-11-25T10:42:24.798Z,96465.47
2023-11-25T10:43:29.015Z,96455.41
2023-11-25T10:44:32.182Z,96463.75
2023-11-25T10:45:35.622Z,96458.47
2023-11-25T10:46:42.368Z,96467.97
2023-11-25T10:47:45.722Z,96473.06
2023-11-25T10:48:50.642Z,96459.72
2023-11-25T10:49:54.451Z,96471.13
2023-11-25T10:50:59.354Z,96472.37
2023-11-25T10:52:07.445Z,96463.09
2023-11-25T10:53:17.365Z,96470.16
2023-11-25T10:54:35.135Z,96477.34
2023-11-25T10:55:38.886Z,96471.03
2023-11-25T10:56:42.216Z,96483.09
2023-11-25T10:57:47.142Z,96480.37
2023-11-25T10:58:53.096Z,96474.34
2023-11-25T11:00:00.374Z,96478.84
2023-11-25T11:01:03.981Z,96479.69
2023-11-25T11:02:19.739Z,96474.81
2023-11-25T11:03:39.002Z,96483.31
2023-11-25T11:04:55.482Z,96466.91
2023-11-25T11:06:02.961Z,96475.56
2023-11-25T11:07:08.913Z,96469.66
2023-11-25T11:08:30.765Z,96477.13
2023-11-25T11:09:36.835Z,96465.09
2023-11-25T11:10:49.463Z,96472.19
2023-11-25T11:11:57.803Z,96450.34
2023-11-25T11:13:05.379Z,96470.78
2023-11-25T11:14:15.641Z,96456.25
2023-11-25T11:15:21.916Z,96458.97
2023-11-25T11:16:36.536Z,96463.09
2023-11-25T11:18:20.540Z,96460.72
2023-11-25T11:19:35.695Z,96469.91
2023-11-25T11:20:47.823Z,96459.91
2023-11-25T11:21:53.539Z,96451.59
2023-11-25T11:22:58.729Z,96450.41
2023-11-25T11:24:02.941Z,96456.78
2023-11-25T11:25:24.417Z,96458.31
2023-11-25T11:26:47.523Z,96445.72
2023-11-25T11:28:12.062Z,96465.22
2023-11-25T11:29:37.921Z,96468.34
2023-11-25T11:30:59.617Z,96459.44
2023-11-25T11:32:08.803Z,96455.66
2023-11-25T11:33:15.929Z,96460.97
2023-11-25T11:34:19.029Z,96459.50
2023-11-25T11:35:22.361Z,96452.38
2023-11-25T11:36:32.476Z,96452.31
2023-11-25T11:37:39.699Z,96438.09
2023-11-25T11:38:45.202Z,96448.97
2023-11-25T11:39:52.123Z,96455.19
2023-11-25T11:40:59.243Z,96447.75
2023-11-25T11:42:27.968Z,96453.97
2023-11-25T11:43:31.093Z,96453.78
2023-11-25T11:44:36.212Z,96454.31
2023-11-25T11:45:38.955Z,96448.63
2023-11-25T11:46:43.983Z,96430.25
2023-11-25T11:47:48.977Z,96440.34
2023-11-25T11:48:52.824Z,96444.78
2023-11-25T11:49:57.172Z,96446.06
2023-11-25T11:51:00.235Z,96436.47
2023-11-25T11:52:03.988Z,96444.19
2023-11-25T11:53:14.376Z,96446.91
2023-11-25T11:54:24.858Z,96436.00
2023-11-25T11:55:54.221Z,96438.97
2023-11-25T11:57:05.078Z,96437.97
2023-11-25T11:58:11.753Z,96438.81
2023-11-25T11:59:14.750Z,96435.53
2023-11-25T12:00:17.964Z,96434.22
2023-11-25T12:01:20.921Z,96436.28
2023-11-25T12:02:23.957Z,96442.28
2023-11-25T12:03:28.422Z,96451.09
2023-11-25T12:04:31.363Z,96433.28
2023-11-25T12:05:34.763Z,96435.78
2023-11-25T12:06:39.196Z,96434.09
2023-11-25T12:07:42.190Z,96429.84
2023-11-25T12:08:45.193Z,96437.44
2023-11-25T12:09:48.869Z,96429.94
2023-11-25T12:10:53.354Z,96438.75
2023-11-25T12:12:01.530Z,96423.59
2023-11-25T12:13:05.916Z,96429.16
2023-11-25T12:14:08.931Z,96416.84
2023-11-25T12:15:11.845Z,96426.78
2023-11-25T12:16:14.546Z,96447.00
2023-11-25T12:17:18.351Z,96433.06
2023-11-25T12:18:22.138Z,96438.66
2023-11-25T12:19:26.123Z,96430.09
2023-11-25T12:20:29.732Z,96436.31
2023-11-25T12:21:33.489Z,96437.78
2023-11-25T12:22:36.645Z,96438.72
2023-11-25T12:23:49.205Z,96436.75
2023-11-25T12:24:54.359Z,96437.81
2023-11-25T12:26:00.346Z,96429.94
2023-11-25T12:27:06.761Z,96435.53
2023-11-25T12:28:11.190Z,96423.41
2023-11-25T12:29:15.164Z,96433.66
2023-11-25T12:30:18.267Z,96432.22
2023-11-25T12:31:21.370Z,96426.59
2023-11-25T12:32:25.357Z,96418.97
2023-11-25T12:33:28.480Z,96428.91
2023-11-25T12:34:31.479Z,96427.91
2023-11-25T12:35:40.007Z,96420.63
2023-11-25T12:36:43.262Z,96417.13
2023-11-25T12:37:52.911Z,96422.97